sensor_id;sensor_type;location;lat;lon;timestamp;pressure;altitude;pressure_sealevel;temperature;humidity
51528;BME280;37612;51.768;21.590;2023-11-19T00:00:21;100617.81;;;-0.75;100.00
51528;BME280;37612;51.768;21.590;2023-11-19T00:04:42;100610.88;;;-0.73;100.00
51528;BME280;37612;51.768;21.590;2023-11-19T00:08:43;100596.63;;;-0.69;100.00
51528;BME280;37612;51.768;21.590;2023-11-19T00:12:46;100589.67;;;-0.67;100.00
51528;BME280;37612;51.768;21.590;2023-11-19T00:16:47;100595.93;;;-0.70;100.00
51528;BME280;37612;51.768;21.590;2023-11-19T00:20:49;100605.53;;;-0.73;100.00
51528;BME280;37612;51.768;21.590;2023-11-19T00:24:50;100599.21;;;-0.72;100.00
51528;BME280;37612;51.768;21.590;2023-11-19T00:28:51;100598.73;;;-0.70;100.00
51528;BME280;37612;51.768;21.590;2023-11-19T00:32:54;100600.89;;;-0.71;100.00
51528;BME280;37612;51.768;21.590;2023-11-19T00:36:55;100599.48;;;-0.69;100.00
51528;BME280;37612;51.768;21.590;2023-11-19T00:40:58;100601.98;;;-0.64;100.00
51528;BME280;37612;51.768;21.590;2023-11-19T00:44:59;100604.73;;;-0.63;100.00
51528;BME280;37612;51.768;21.590;2023-11-19T00:49:02;100613.89;;;-0.65;100.00
51528;BME280;37612;51.768;21.590;2023-11-19T00:53:03;100599.67;;;-0.64;100.00
51528;BME280;37612;51.768;21.590;2023-11-19T00:57:05;100588.70;;;-0.63;100.00
51528;BME280;37612;51.768;21.590;2023-11-19T01:01:06;100577.03;;;-0.62;100.00
51528;BME280;37612;51.768;21.590;2023-11-19T01:05:08;100572.35;;;-0.60;100.00
51528;BME280;37612;51.768;21.590;2023-11-19T01:09:10;100569.48;;;-0.58;100.00
51528;BME280;37612;51.768;21.590;2023-11-19T01:13:11;100572.64;;;-0.54;100.00
51528;BME280;37612;51.768;21.590;2023-11-19T01:17:12;100564.11;;;-0.51;100.00
51528;BME280;37612;51.768;21.590;2023-11-19T01:21:14;100556.40;;;-0.52;100.00
51528;BME280;37612;51.768;21.590;2023-11-19T01:25:15;100551.70;;;-0.59;100.00
51528;BME280;37612;51.768;21.590;2023-11-19T01:29:17;100548.35;;;-0.60;100.00
51528;BME280;37612;51.768;21.590;2023-11-19T01:33:20;100539.76;;;-0.57;100.00
51528;BME280;37612;51.768;21.590;2023-11-19T01:37:25;100525.47;;;-0.52;100.00
51528;BME280;37612;51.768;21.590;2023-11-19T01:41:26;100508.15;;;-0.51;100.00
51528;BME280;37612;51.768;21.590;2023-11-19T01:45:29;100502.85;;;-0.50;100.00
51528;BME280;37612;51.768;21.590;2023-11-19T01:49:34;100508.73;;;-0.48;100.00
51528;BME280;37612;51.768;21.590;2023-11-19T01:53:37;100512.78;;;-0.43;100.00
51528;BME280;37612;51.768;21.590;2023-11-19T01:57:40;100508.27;;;-0.38;100.00
51528;BME280;37612;51.768;21.590;2023-11-19T02:01:42;100504.70;;;-0.36;100.00
51528;BME280;37612;51.768;21.590;2023-11-19T02:05:44;100501.31;;;-0.34;100.00
51528;BME280;37612;51.768;21.590;2023-11-19T02:09:48;100491.87;;;-0.29;100.00
51528;BME280;37612;51.768;21.590;2023-11-19T02:13:49;100484.60;;;-0.27;100.00
51528;BME280;37612;51.768;21.590;2023-11-19T02:17:51;100478.16;;;-0.29;100.00
51528;BME280;37612;51.768;21.590;2023-11-19T02:21:52;100472.02;;;-0.28;100.00
51528;BME280;37612;51.768;21.590;2023-11-19T02:30:04;100463.30;;;-0.30;100.00
51528;BME280;37612;51.768;21.590;2023-11-19T02:34:11;100453.30;;;-0.32;100.00
51528;BME280;37612;51.768;21.590;2023-11-19T02:38:13;100435.81;;;-0.35;100.00
51528;BME280;37612;51.768;21.590;2023-11-19T02:42:15;100444.27;;;-0.37;100.00
51528;BME280;37612;51.768;21.590;2023-11-19T02:46:16;100443.25;;;-0.35;100.00
51528;BME280;37612;51.768;21.590;2023-11-19T02:50:21;100447.23;;;-0.32;100.00
51528;BME280;37612;51.768;21.590;2023-11-19T02:54:28;100441.96;;;-0.33;100.00
51528;BME280;37612;51.768;21.590;2023-11-19T02:58:30;100437.05;;;-0.35;100.00
51528;BME280;37612;51.768;21.590;2023-11-19T03:02:31;100436.00;;;-0.35;100.00
51528;BME280;37612;51.768;21.590;2023-11-19T03:06:45;100435.40;;;-0.34;100.00
51528;BME280;37612;51.768;21.590;2023-11-19T03:10:46;100432.27;;;-0.34;100.00
51528;BME280;37612;51.768;21.590;2023-11-19T03:14:47;100428.95;;;-0.36;100.00
51528;BME280;37612;51.768;21.590;2023-11-19T03:18:51;100415.84;;;-0.39;100.00
51528;BME280;37612;51.768;21.590;2023-11-19T03:22:53;100412.73;;;-0.38;100.00
51528;BME280;37612;51.768;21.590;2023-11-19T03:26:55;100405.05;;;-0.35;100.00
51528;BME280;37612;51.768;21.590;2023-11-19T03:30:56;100399.33;;;-0.32;100.00
51528;BME280;37612;51.768;21.590;2023-11-19T03:34:58;100392.52;;;-0.32;100.00
51528;BME280;37612;51.768;21.590;2023-11-19T03:39:00;100385.89;;;-0.33;100.00
51528;BME280;37612;51.768;21.590;2023-11-19T03:43:02;100379.59;;;-0.32;100.00
51528;BME280;37612;51.768;21.590;2023-11-19T03:47:10;100379.98;;;-0.31;100.00
51528;BME280;37612;51.768;21.590;2023-11-19T03:51:11;100371.52;;;-0.31;100.00
51528;BME280;37612;51.768;21.590;2023-11-19T03:55:16;100359.97;;;-0.29;100.00
51528;BME280;37612;51.768;21.590;2023-11-19T03:59:17;100349.88;;;-0.31;100.00
51528;BME280;37612;51.768;21.590;2023-11-19T04:03:21;100347.55;;;-0.32;100.00
51528;BME280;37612;51.768;21.590;2023-11-19T04:07:22;100351.73;;;-0.29;100.00
51528;BME280;37612;51.768;21.590;2023-11-19T04:11:24;100344.39;;;-0.29;100.00
51528;BME280;37612;51.768;21.590;2023-11-19T04:15:25;100339.42;;;-0.33;100.00
51528;BME280;37612;51.768;21.590;2023-11-19T04:19:26;100337.34;;;-0.36;100.00
51528;BME280;37612;51.768;21.590;2023-11-19T04:23:28;100336.80;;;-0.35;100.00
51528;BME280;37612;51.768;21.590;2023-11-19T04:27:29;100334.77;;;-0.30;100.00
51528;BME280;37612;51.768;21.590;2023-11-19T04:31:31;100325.48;;;-0.29;100.00
51528;BME280;37612;51.768;21.590;2023-11-19T04:35:38;100316.13;;;-0.29;100.00
51528;BME280;37612;51.768;21.590;2023-11-19T04:39:39;100305.04;;;-0.33;100.00
51528;BME280;37612;51.768;21.590;2023-11-19T04:43:40;100298.83;;;-0.37;100.00
51528;BME280;37612;51.768;21.590;2023-11-19T04:47:42;100294.73;;;-0.37;100.00
51528;BME280;37612;51.768;21.590;2023-11-19T04:51:45;100293.22;;;-0.33;100.00
51528;BME280;37612;51.768;21.590;2023-11-19T04:55:49;100288.01;;;-0.31;100.00
51528;BME280;37612;51.768;21.590;2023-11-19T04:59:50;100276.93;;;-0.34;100.00
51528;BME280;37612;51.768;21.590;2023-11-19T05:03:51;100265.33;;;-0.35;100.00
51528;BME280;37612;51.768;21.590;2023-11-19T05:07:53;100268.28;;;-0.35;100.00
51528;BME280;37612;51.768;21.590;2023-11-19T05:11:54;100258.23;;;-0.38;100.00
51528;BME280;37612;51.768;21.590;2023-11-19T05:15:55;100249.45;;;-0.38;100.00
51528;BME280;37612;51.768;21.590;2023-11-19T05:19:56;100235.92;;;-0.35;100.00
51528;BME280;37612;51.768;21.590;2023-11-19T05:23:58;100235.80;;;-0.30;100.00
51528;BME280;37612;51.768;21.590;2023-11-19T05:28:02;100234.75;;;-0.30;100.00
51528;BME280;37612;51.768;21.590;2023-11-19T05:32:03;100226.54;;;-0.34;100.00
51528;BME280;37612;51.768;21.590;2023-11-19T05:36:05;100223.42;;;-0.34;100.00
51528;BME280;37612;51.768;21.590;2023-11-19T05:40:09;100221.30;;;-0.32;100.00
51528;BME280;37612;51.768;21.590;2023-11-19T05:44:17;100231.69;;;-0.34;100.00
51528;BME280;37612;51.768;21.590;2023-11-19T05:48:19;100230.73;;;-0.41;100.00
51528;BME280;37612;51.768;21.590;2023-11-19T05:52:20;100238.64;;;-0.45;100.00
51528;BME280;37612;51.768;21.590;2023-11-19T05:56:25;100242.00;;;-0.47;100.00
51528;BME280;37612;51.768;21.590;2023-11-19T06:00:35;100235.33;;;-0.50;100.00
51528;BME280;37612;51.768;21.590;2023-11-19T06:04:36;100230.64;;;-0.53;100.00
51528;BME280;37612;51.768;21.590;2023-11-19T06:08:37;100231.55;;;-0.50;100.00
51528;BME280;37612;51.768;21.590;2023-11-19T06:12:39;100226.98;;;-0.47;100.00
51528;BME280;37612;51.768;21.590;2023-11-19T06:16:41;100228.80;;;-0.46;100.00
51528;BME280;37612;51.768;21.590;2023-11-19T06:20:43;100222.65;;;-0.48;100.00
51528;BME280;37612;51.768;21.590;2023-11-19T06:24:44;100218.61;;;-0.46;100.00
51528;BME280;37612;51.768;21.590;2023-11-19T06:28:45;100214.83;;;-0.44;100.00
51528;BME280;37612;51.768;21.590;2023-11-19T06:32:47;100210.41;;;-0.44;100.00
51528;BME280;37612;51.768;21.590;2023-11-19T06:36:48;100212.36;;;-0.38;100.00
51528;BME280;37612;51.768;21.590;2023-11-19T06:40:49;100214.60;;;-0.33;100.00
51528;BME280;37612;51.768;21.590;2023-11-19T06:44:51;100212.63;;;-0.33;100.00
51528;BME280;37612;51.768;21.590;2023-11-19T06:48:52;100213.88;;;-0.31;100.00
51528;BME280;37612;51.768;21.590;2023-11-19T06:52:53;100201.69;;;-0.29;100.00
51528;BME280;37612;51.768;21.590;2023-11-19T06:56:54;100198.70;;;-0.24;100.00
51528;BME280;37612;51.768;21.590;2023-11-19T07:00:56;100189.48;;;-0.23;100.00
51528;BME280;37612;51.768;21.590;2023-11-19T07:04:57;100182.34;;;-0.20;100.00
51528;BME280;37612;51.768;21.590;2023-11-19T07:08:59;100176.92;;;-0.16;100.00
51528;BME280;37612;51.768;21.590;2023-11-19T07:13:00;100177.24;;;-0.11;100.00
51528;BME280;37612;51.768;21.590;2023-11-19T07:17:01;100175.15;;;-0.07;100.00
51528;BME280;37612;51.768;21.590;2023-11-19T07:21:04;100174.77;;;-0.02;100.00
51528;BME280;37612;51.768;21.590;2023-11-19T07:25:05;100161.27;;;-0.01;100.00
51528;BME280;37612;51.768;21.590;2023-11-19T07:29:09;100157.58;;;0.01;100.00
51528;BME280;37612;51.768;21.590;2023-11-19T07:33:11;100145.68;;;0.02;100.00
51528;BME280;37612;51.768;21.590;2023-11-19T07:37:12;100143.63;;;-0.00;100.00
51528;BME280;37612;51.768;21.590;2023-11-19T07:41:14;100138.48;;;-0.03;100.00
51528;BME280;37612;51.768;21.590;2023-11-19T07:45:16;100134.98;;;-0.03;100.00
51528;BME280;37612;51.768;21.590;2023-11-19T07:49:18;100134.52;;;0.02;100.00
51528;BME280;37612;51.768;21.590;2023-11-19T07:53:20;100137.71;;;0.03;100.00
51528;BME280;37612;51.768;21.590;2023-11-19T07:57:21;100130.61;;;0.01;100.00
51528;BME280;37612;51.768;21.590;2023-11-19T08:01:25;100123.97;;;0.02;100.00
51528;BME280;37612;51.768;21.590;2023-11-19T08:05:26;100120.06;;;0.06;100.00
51528;BME280;37612;51.768;21.590;2023-11-19T08:09:28;100119.56;;;0.07;100.00
51528;BME280;37612;51.768;21.590;2023-11-19T08:13:29;100111.30;;;0.06;100.00
51528;BME280;37612;51.768;21.590;2023-11-19T08:17:30;100108.27;;;0.06;100.00
51528;BME280;37612;51.768;21.590;2023-11-19T08:21:32;100105.20;;;0.09;100.00
51528;BME280;37612;51.768;21.590;2023-11-19T08:25:34;100101.33;;;0.06;100.00
51528;BME280;37612;51.768;21.590;2023-11-19T08:29:35;100096.48;;;0.03;100.00
51528;BME280;37612;51.768;21.590;2023-11-19T08:33:36;100090.46;;;0.03;100.00
51528;BME280;37612;51.768;21.590;2023-11-19T08:37:38;100083.80;;;0.06;100.00
51528;BME280;37612;51.768;21.590;2023-11-19T08:41:39;100083.21;;;0.07;100.00
51528;BME280;37612;51.768;21.590;2023-11-19T08:45:48;100083.90;;;0.07;100.00
51528;BME280;37612;51.768;21.590;2023-11-19T08:49:54;100077.20;;;0.10;100.00
51528;BME280;37612;51.768;21.590;2023-11-19T08:53:56;100068.84;;;0.13;100.00
51528;BME280;37612;51.768;21.590;2023-11-19T08:58:00;100060.04;;;0.16;100.00
51528;BME280;37612;51.768;21.590;2023-11-19T09:02:04;100051.89;;;0.17;100.00
51528;BME280;37612;51.768;21.590;2023-11-19T09:06:07;100042.60;;;0.20;100.00
51528;BME280;37612;51.768;21.590;2023-11-19T09:10:09;100038.11;;;0.22;100.00
51528;BME280;37612;51.768;21.590;2023-11-19T09:14:10;100030.63;;;0.25;100.00
51528;BME280;37612;51.768;21.590;2023-11-19T09:18:11;100022.92;;;0.34;100.00
51528;BME280;37612;51.768;21.590;2023-11-19T09:22:12;100012.55;;;0.43;100.00
51528;BME280;37612;51.768;21.590;2023-11-19T09:26:14;100006.82;;;0.50;100.00
51528;BME280;37612;51.768;21.590;2023-11-19T09:30:16;100004.17;;;0.55;100.00
51528;BME280;37612;51.768;21.590;2023-11-19T09:34:17;99998.04;;;0.62;100.00
51528;BME280;37612;51.768;21.590;2023-11-19T09:38:18;99996.67;;;0.64;100.00
51528;BME280;37612;51.768;21.590;2023-11-19T09:42:19;99990.43;;;0.67;100.00
51528;BME280;37612;51.768;21.590;2023-11-19T09:46:22;99988.72;;;0.63;100.00
51528;BME280;37612;51.768;21.590;2023-11-19T09:50:29;99982.45;;;0.53;100.00
51528;BME280;37612;51.768;21.590;2023-11-19T09:54:33;99973.45;;;0.46;100.00
51528;BME280;37612;51.768;21.590;2023-11-19T09:58:44;99968.02;;;0.46;100.00
51528;BME280;37612;51.768;21.590;2023-11-19T10:02:45;99952.02;;;0.49;100.00
51528;BME280;37612;51.768;21.590;2023-11-19T10:06:47;99946.32;;;0.48;100.00
51528;BME280;37612;51.768;21.590;2023-11-19T10:10:49;99938.77;;;0.45;100.00
51528;BME280;37612;51.768;21.590;2023-11-19T10:14:50;99927.80;;;0.43;100.00
51528;BME280;37612;51.768;21.590;2023-11-19T10:18:52;99922.39;;;0.43;100.00
51528;BME280;37612;51.768;21.590;2023-11-19T10:22:54;99910.78;;;0.42;100.00
51528;BME280;37612;51.768;21.590;2023-11-19T10:27:02;99902.84;;;0.43;100.00
51528;BME280;37612;51.768;21.590;2023-11-19T10:31:05;99895.58;;;0.46;100.00
51528;BME280;37612;51.768;21.590;2023-11-19T10:35:07;99887.10;;;0.46;100.00
51528;BME280;37612;51.768;21.590;2023-11-19T10:39:08;99882.36;;;0.45;100.00
51528;BME280;37612;51.768;21.590;2023-11-19T10:43:10;99878.48;;;0.44;100.00
51528;BME280;37612;51.768;21.590;2023-11-19T10:47:13;99879.39;;;0.42;100.00
51528;BME280;37612;51.768;21.590;2023-11-19T10:51:19;99871.06;;;0.41;100.00
51528;BME280;37612;51.768;21.590;2023-11-19T10:55:47;99871.96;;;0.43;100.00
51528;BME280;37612;51.768;21.590;2023-11-19T10:59:49;99857.79;;;0.40;100.00
51528;BME280;37612;51.768;21.590;2023-11-19T11:03:54;99845.35;;;0.40;100.00
51528;BME280;37612;51.768;21.590;2023-11-19T11:07:58;99834.64;;;0.44;100.00
51528;BME280;37612;51.768;21.590;2023-11-19T11:12:05;99835.06;;;0.50;100.00
51528;BME280;37612;51.768;21.590;2023-11-19T11:16:07;99831.49;;;0.53;100.00
51528;BME280;37612;51.768;21.590;2023-11-19T11:20:09;99817.71;;;0.58;100.00
51528;BME280;37612;51.768;21.590;2023-11-19T11:24:27;99809.34;;;0.66;100.00
51528;BME280;37612;51.768;21.590;2023-11-19T11:37:23;99779.79;;;0.80;100.00
51528;BME280;37612;51.768;21.590;2023-11-19T11:41:26;99777.79;;;0.86;100.00
51528;BME280;37612;51.768;21.590;2023-11-19T11:45:38;99776.49;;;0.94;100.00
51528;BME280;37612;51.768;21.590;2023-11-19T11:49:56;99768.61;;;1.04;100.00
51528;BME280;37612;51.768;21.590;2023-11-19T11:54:07;99755.36;;;1.11;100.00
51528;BME280;37612;51.768;21.590;2023-11-19T11:58:11;99748.25;;;1.14;100.00
51528;BME280;37612;51.768;21.590;2023-11-19T12:02:20;99745.92;;;1.10;100.00
51528;BME280;37612;51.768;21.590;2023-11-19T12:06:41;99738.00;;;1.09;100.00
51528;BME280;37612;51.768;21.590;2023-11-19T12:10:55;99728.98;;;1.11;100.00
51528;BME280;37612;51.768;21.590;2023-11-19T12:15:07;99712.52;;;1.08;100.00
51528;BME280;37612;51.768;21.590;2023-11-19T12:19:16;99705.59;;;0.99;100.00
51528;BME280;37612;51.768;21.590;2023-11-19T12:23:46;99702.91;;;0.96;100.00
51528;BME280;37612;51.768;21.590;2023-11-19T12:27:54;99698.84;;;0.90;100.00
51528;BME280;37612;51.768;21.590;2023-11-19T12:32:21;99692.06;;;0.78;100.00
51528;BME280;37612;51.768;21.590;2023-11-19T12:36:35;99686.91;;;0.74;100.00
51528;BME280;37612;51.768;21.590;2023-11-19T12:40:37;99683.16;;;0.73;100.00
51528;BME280;37612;51.768;21.590;2023-11-19T12:44:38;99675.74;;;0.71;100.00
51528;BME280;37612;51.768;21.590;2023-11-19T12:48:41;99672.31;;;0.67;100.00
51528;BME280;37612;51.768;21.590;2023-11-19T12:52:42;99666.02;;;0.68;100.00
51528;BME280;37612;51.768;21.590;2023-11-19T12:56:53;99661.89;;;0.66;100.00
51528;BME280;37612;51.768;21.590;2023-11-19T13:01:05;99651.09;;;0.63;100.00
51528;BME280;37612;51.768;21.590;2023-11-19T13:09:28;99643.36;;;0.55;100.00
51528;BME280;37612;51.768;21.590;2023-11-19T13:13:30;99632.70;;;0.58;100.00
51528;BME280;37612;51.768;21.590;2023-11-19T13:17:31;99628.90;;;0.55;100.00
51528;BME280;37612;51.768;21.590;2023-11-19T13:21:32;99621.52;;;0.51;100.00
51528;BME280;37612;51.768;21.590;2023-11-19T13:25:34;99620.15;;;0.51;100.00
51528;BME280;37612;51.768;21.590;2023-11-19T13:29:35;99621.22;;;0.49;100.00
51528;BME280;37612;51.768;21.590;2023-11-19T13:33:36;99608.20;;;0.47;100.00
51528;BME280;37612;51.768;21.590;2023-11-19T13:37:38;99610.46;;;0.38;100.00
51528;BME280;37612;51.768;21.590;2023-11-19T13:41:39;99605.27;;;0.38;100.00
51528;BME280;37612;51.768;21.590;2023-11-19T13:45:41;99601.19;;;0.41;100.00
51528;BME280;37612;51.768;21.590;2023-11-19T13:49:44;99597.67;;;0.41;100.00
51528;BME280;37612;51.768;21.590;2023-11-19T13:53:45;99585.33;;;0.36;100.00
51528;BME280;37612;51.768;21.590;2023-11-19T13:57:47;99580.46;;;0.33;100.00
51528;BME280;37612;51.768;21.590;2023-11-19T14:01:49;99580.35;;;0.34;100.00
51528;BME280;37612;51.768;21.590;2023-11-19T14:05:50;99577.80;;;0.33;100.00
51528;BME280;37612;51.768;21.590;2023-11-19T14:09:53;99573.04;;;0.33;100.00
51528;BME280;37612;51.768;21.590;2023-11-19T14:13:55;99562.98;;;0.33;100.00
51528;BME280;37612;51.768;21.590;2023-11-19T14:17:56;99561.33;;;0.34;100.00
51528;BME280;37612;51.768;21.590;2023-11-19T14:21:57;99559.28;;;0.29;100.00
51528;BME280;37612;51.768;21.590;2023-11-19T14:25:58;99563.33;;;0.25;100.00
51528;BME280;37612;51.768;21.590;2023-11-19T14:29:59;99560.81;;;0.21;100.00
51528;BME280;37612;51.768;21.590;2023-11-19T14:34:00;99554.79;;;0.20;100.00
51528;BME280;37612;51.768;21.590;2023-11-19T14:38:02;99543.55;;;0.18;100.00
51528;BME280;37612;51.768;21.590;2023-11-19T14:42:06;99529.91;;;0.14;100.00
51528;BME280;37612;51.768;21.590;2023-11-19T14:46:07;99515.38;;;0.13;100.00
51528;BME280;37612;51.768;21.590;2023-11-19T14:50:10;99502.87;;;0.12;100.00
51528;BME280;37612;51.768;21.590;2023-11-19T14:54:11;99491.20;;;0.07;100.00
51528;BME280;37612;51.768;21.590;2023-11-19T14:58:12;99489.70;;;0.06;100.00
51528;BME280;37612;51.768;21.590;2023-11-19T15:02:15;99490.98;;;0.06;100.00
51528;BME280;37612;51.768;21.590;2023-11-19T15:06:16;99488.77;;;0.06;100.00
51528;BME280;37612;51.768;21.590;2023-11-19T15:10:18;99479.79;;;0.04;100.00
51528;BME280;37612;51.768;21.590;2023-11-19T15:14:19;99478.42;;;0.03;100.00
51528;BME280;37612;51.768;21.590;2023-11-19T15:18:20;99477.38;;;0.06;100.00
51528;BME280;37612;51.768;21.590;2023-11-19T15:22:22;99474.63;;;0.04;100.00
51528;BME280;37612;51.768;21.590;2023-11-19T15:26:24;99473.29;;;0.02;100.00
51528;BME280;37612;51.768;21.590;2023-11-19T15:30:26;99476.96;;;0.04;100.00
51528;BME280;37612;51.768;21.590;2023-11-19T15:34:27;99471.73;;;0.05;100.00
51528;BME280;37612;51.768;21.590;2023-11-19T15:38:28;99469.83;;;0.02;100.00
51528;BME280;37612;51.768;21.590;2023-11-19T15:42:30;99462.08;;;0.01;100.00
51528;BME280;37612;51.768;21.590;2023-11-19T15:46:32;99462.89;;;0.03;100.00
51528;BME280;37612;51.768;21.590;2023-11-19T15:50:33;99464.03;;;0.06;100.00
51528;BME280;37612;51.768;21.590;2023-11-19T15:54:34;99461.73;;;0.08;100.00
51528;BME280;37612;51.768;21.590;2023-11-19T15:58:36;99459.40;;;0.10;100.00
51528;BME280;37612;51.768;21.590;2023-11-19T16:02:40;99450.89;;;0.12;100.00
51528;BME280;37612;51.768;21.590;2023-11-19T16:06:41;99446.17;;;0.15;100.00
51528;BME280;37612;51.768;21.590;2023-11-19T16:10:43;99440.20;;;0.15;100.00
51528;BME280;37612;51.768;21.590;2023-11-19T16:14:44;99440.61;;;0.13;100.00
51528;BME280;37612;51.768;21.590;2023-11-19T16:18:46;99441.94;;;0.12;100.00
51528;BME280;37612;51.768;21.590;2023-11-19T16:22:47;99447.21;;;0.12;100.00
51528;BME280;37612;51.768;21.590;2023-11-19T16:26:58;99461.91;;;0.09;100.00
51528;BME280;37612;51.768;21.590;2023-11-19T16:31:00;99461.57;;;0.08;100.00
51528;BME280;37612;51.768;21.590;2023-11-19T16:35:01;99460.90;;;0.10;100.00
51528;BME280;37612;51.768;21.590;2023-11-19T16:39:02;99452.73;;;0.10;100.00
51528;BME280;37612;51.768;21.590;2023-11-19T16:43:05;99450.32;;;0.10;100.00
51528;BME280;37612;51.768;21.590;2023-11-19T16:47:06;99444.05;;;0.11;100.00
51528;BME280;37612;51.768;21.590;2023-11-19T16:51:12;99437.44;;;0.10;100.00
51528;BME280;37612;51.768;21.590;2023-11-19T16:55:14;99428.05;;;0.07;100.00
51528;BME280;37612;51.768;21.590;2023-11-19T16:59:16;99421.83;;;0.04;100.00
51528;BME280;37612;51.768;21.590;2023-11-19T17:03:18;99426.39;;;0.05;100.00
51528;BME280;37612;51.768;21.590;2023-11-19T17:07:19;99426.98;;;0.09;100.00
51528;BME280;37612;51.768;21.590;2023-11-19T17:11:20;99419.10;;;0.09;100.00
51528;BME280;37612;51.768;21.590;2023-11-19T17:15:22;99411.06;;;0.09;100.00
51528;BME280;37612;51.768;21.590;2023-11-19T17:19:23;99410.46;;;0.09;100.00
51528;BME280;37612;51.768;21.590;2023-11-19T17:23:24;99411.27;;;0.11;100.00
51528;BME280;37612;51.768;21.590;2023-11-19T17:27:25;99408.55;;;0.08;100.00
51528;BME280;37612;51.768;21.590;2023-11-19T17:31:32;99398.10;;;0.09;100.00
51528;BME280;37612;51.768;21.590;2023-11-19T17:35:34;99396.02;;;0.10;100.00
51528;BME280;37612;51.768;21.590;2023-11-19T17:39:35;99393.85;;;0.12;100.00
51528;BME280;37612;51.768;21.590;2023-11-19T17:43:37;99389.70;;;0.09;100.00
51528;BME280;37612;51.768;21.590;2023-11-19T17:47:42;99382.48;;;0.07;100.00
51528;BME280;37612;51.768;21.590;2023-11-19T17:51:43;99379.85;;;0.07;100.00
51528;BME280;37612;51.768;21.590;2023-11-19T17:55:44;99370.14;;;0.10;100.00
51528;BME280;37612;51.768;21.590;2023-11-19T17:59:46;99364.36;;;0.10;100.00
51528;BME280;37612;51.768;21.590;2023-11-19T18:04:00;99360.07;;;0.08;100.00
51528;BME280;37612;51.768;21.590;2023-11-19T18:08:01;99361.68;;;0.08;100.00
51528;BME280;37612;51.768;21.590;2023-11-19T18:12:03;99357.45;;;0.08;100.00
51528;BME280;37612;51.768;21.590;2023-11-19T18:16:04;99358.41;;;0.07;100.00
51528;BME280;37612;51.768;21.590;2023-11-19T18:20:06;99346.30;;;0.05;100.00
51528;BME280;37612;51.768;21.590;2023-11-19T18:24:09;99343.56;;;0.06;100.00
51528;BME280;37612;51.768;21.590;2023-11-19T18:28:10;99342.10;;;0.08;100.00
51528;BME280;37612;51.768;21.590;2023-11-19T18:32:11;99333.54;;;0.08;100.00
51528;BME280;37612;51.768;21.590;2023-11-19T18:36:13;99329.54;;;0.06;100.00
51528;BME280;37612;51.768;21.590;2023-11-19T18:40:18;99330.11;;;0.06;100.00
51528;BME280;37612;51.768;21.590;2023-11-19T18:44:22;99328.86;;;0.08;100.00
51528;BME280;37612;51.768;21.590;2023-11-19T18:48:23;99319.48;;;0.08;100.00
51528;BME280;37612;51.768;21.590;2023-11-19T18:52:33;99316.89;;;0.06;100.00
51528;BME280;37612;51.768;21.590;2023-11-19T18:56:35;99310.77;;;0.07;100.00
51528;BME280;37612;51.768;21.590;2023-11-19T19:00:40;99302.63;;;0.09;100.00
51528;BME280;37612;51.768;21.590;2023-11-19T19:04:42;99295.84;;;0.10;100.00
51528;BME280;37612;51.768;21.590;2023-11-19T19:08:44;99292.13;;;0.07;100.00
51528;BME280;37612;51.768;21.590;2023-11-19T19:12:46;99289.21;;;0.08;100.00
51528;BME280;37612;51.768;21.590;2023-11-19T19:17:03;99287.13;;;0.09;100.00
51528;BME280;37612;51.768;21.590;2023-11-19T19:21:05;99285.81;;;0.09;100.00
51528;BME280;37612;51.768;21.590;2023-11-19T19:25:06;99281.58;;;0.06;100.00
51528;BME280;37612;51.768;21.590;2023-11-19T19:29:12;99273.83;;;0.07;100.00
51528;BME280;37612;51.768;21.590;2023-11-19T19:33:20;99272.63;;;0.07;100.00
51528;BME280;37612;51.768;21.590;2023-11-19T19:37:26;99275.00;;;0.07;100.00
51528;BME280;37612;51.768;21.590;2023-11-19T19:41:38;99271.86;;;0.07;100.00
51528;BME280;37612;51.768;21.590;2023-11-19T19:45:58;99261.40;;;0.07;100.00
51528;BME280;37612;51.768;21.590;2023-11-19T19:49:59;99260.44;;;0.11;100.00
51528;BME280;37612;51.768;21.590;2023-11-19T19:54:04;99259.71;;;0.10;100.00
51528;BME280;37612;51.768;21.590;2023-11-19T19:58:09;99259.02;;;0.09;100.00
51528;BME280;37612;51.768;21.590;2023-11-19T20:02:14;99253.21;;;0.10;100.00
51528;BME280;37612;51.768;21.590;2023-11-19T20:06:15;99251.30;;;0.11;100.00
51528;BME280;37612;51.768;21.590;2023-11-19T20:10:37;99251.07;;;0.12;100.00
51528;BME280;37612;51.768;21.590;2023-11-19T20:19:18;99251.55;;;0.14;100.00
51528;BME280;37612;51.768;21.590;2023-11-19T20:23:20;99255.34;;;0.17;100.00
51528;BME280;37612;51.768;21.590;2023-11-19T20:27:22;99247.00;;;0.15;100.00
51528;BME280;37612;51.768;21.590;2023-11-19T20:31:39;99248.98;;;0.15;100.00
51528;BME280;37612;51.768;21.590;2023-11-19T20:35:44;99245.18;;;0.16;100.00
51528;BME280;37612;51.768;21.590;2023-11-19T20:39:48;99240.14;;;0.17;100.00
51528;BME280;37612;51.768;21.590;2023-11-19T20:43:58;99230.52;;;0.15;100.00
51528;BME280;37612;51.768;21.590;2023-11-19T20:48:17;99227.77;;;0.14;100.00
51528;BME280;37612;51.768;21.590;2023-11-19T20:52:34;99224.17;;;0.14;100.00
51528;BME280;37612;51.768;21.590;2023-11-19T20:56:37;99219.13;;;0.17;100.00
51528;BME280;37612;51.768;21.590;2023-11-19T21:00:39;99215.98;;;0.15;100.00
51528;BME280;37612;51.768;21.590;2023-11-19T21:04:49;99216.06;;;0.11;100.00
51528;BME280;37612;51.768;21.590;2023-11-19T21:08:50;99209.60;;;0.11;100.00
51528;BME280;37612;51.768;21.590;2023-11-19T21:12:54;99204.27;;;0.11;100.00
51528;BME280;37612;51.768;21.590;2023-11-19T21:16:59;99202.50;;;0.13;100.00
51528;BME280;37612;51.768;21.590;2023-11-19T21:21:01;99198.70;;;0.12;100.00